sensor_id;sensor_type;location;lat;lon;timestamp;pressure;altitude;pressure_sealevel;temperature;humidity
4012;BME280;2020;48.682;9.024;2022-12-07T00:01:03;96449.59;;;1.41;100.00
4012;BME280;2020;48.682;9.024;2022-12-07T00:03:29;96444.88;;;1.48;100.00
4012;BME280;2020;48.682;9.024;2022-12-07T00:05:57;96446.31;;;1.52;100.00
4012;BME280;2020;48.682;9.024;2022-12-07T00:08:23;96445.78;;;1.46;100.00
4012;BME280;2020;48.682;9.024;2022-12-07T00:10:48;96454.50;;;1.44;100.00
4012;BME280;2020;48.682;9.024;2022-12-07T00:13:13;96445.06;;;1.44;100.00
4012;BME280;2020;48.682;9.024;2022-12-07T00:15:38;96453.47;;;1.46;100.00
4012;BME280;2020;48.682;9.024;2022-12-07T00:18:04;96451.63;;;1.49;100.00
4012;BME280;2020;48.682;9.024;2022-12-07T00:20:29;96448.16;;;1.50;100.00
4012;BME280;2020;48.682;9.024;2022-12-07T00:22:55;96448.16;;;1.50;100.00
4012;BME280;2020;48.682;9.024;2022-12-07T00:25:20;96449.78;;;1.51;100.00
4012;BME280;2020;48.682;9.024;2022-12-07T00:27:45;96449.78;;;1.51;100.00
4012;BME280;2020;48.682;9.024;2022-12-07T00:30:11;96449.78;;;1.51;100.00
4012;BME280;2020;48.682;9.024;2022-12-07T00:32:36;96441.19;;;1.52;100.00
4012;BME280;2020;48.682;9.024;2022-12-07T00:35:01;96445.91;;;1.58;100.00
4012;BME280;2020;48.682;9.024;2022-12-07T00:37:27;96443.34;;;1.58;100.00
4012;BME280;2020;48.682;9.024;2022-12-07T00:39:52;96445.91;;;1.58;100.00
4012;BME280;2020;48.682;9.024;2022-12-07T00:42:17;96442.63;;;1.56;100.00
4012;BME280;2020;48.682;9.024;2022-12-07T00:44:42;96442.63;;;1.56;100.00
4012;BME280;2020;48.682;9.024;2022-12-07T00:47:08;96431.75;;;1.52;100.00
4012;BME280;2020;48.682;9.024;2022-12-07T00:49:33;96431.13;;;1.49;100.00
4012;BME280;2020;48.682;9.024;2022-12-07T00:51:58;96436.44;;;1.45;100.00
4012;BME280;2020;48.682;9.024;2022-12-07T00:54:23;96436.66;;;1.42;100.00
4012;BME280;2020;48.682;9.024;2022-12-07T00:56:49;96436.44;;;1.45;100.00
4012;BME280;2020;48.682;9.024;2022-12-07T00:59:14;96438.28;;;1.43;100.00
4012;BME280;2020;48.682;9.024;2022-12-07T01:01:40;96442.41;;;1.46;100.00
4012;BME280;2020;48.682;9.024;2022-12-07T01:04:05;96440.13;;;1.41;100.00
4012;BME280;2020;48.682;9.024;2022-12-07T01:06:31;96442.63;;;1.43;100.00
4012;BME280;2020;48.682;9.024;2022-12-07T01:08:56;96434.81;;;1.44;100.00
4012;BME280;2020;48.682;9.024;2022-12-07T01:11:24;96438.09;;;1.46;100.00
4012;BME280;2020;48.682;9.024;2022-12-07T01:13:51;96443.22;;;1.46;100.00
4012;BME280;2020;48.682;9.024;2022-12-07T01:16:17;96443.41;;;1.43;100.00
4012;BME280;2020;48.682;9.024;2022-12-07T01:18:46;96434.81;;;1.44;100.00
4012;BME280;2020;48.682;9.024;2022-12-07T01:21:16;96436.84;;;1.39;100.00
4012;BME280;2020;48.682;9.024;2022-12-07T01:23:42;96445.47;;;1.38;100.00
4012;BME280;2020;48.682;9.024;2022-12-07T01:26:11;96443.63;;;1.40;100.00
4012;BME280;2020;48.682;9.024;2022-12-07T01:28:36;96440.13;;;1.41;100.00
4012;BME280;2020;48.682;9.024;2022-12-07T01:31:07;96450.38;;;1.41;100.00
4012;BME280;2020;48.682;9.024;2022-12-07T01:33:35;96449.47;;;1.42;100.00
4012;BME280;2020;48.682;9.024;2022-12-07T01:36:21;96455.53;;;1.41;100.00
4012;BME280;2020;48.682;9.024;2022-12-07T01:38:50;96448.75;;;1.40;100.00
4012;BME280;2020;48.682;9.024;2022-12-07T01:41:20;96445.47;;;1.38;100.00
4012;BME280;2020;48.682;9.024;2022-12-07T01:46:32;96454.06;;;1.37;100.00
4012;BME280;2020;48.682;9.024;2022-12-07T01:48:57;96453.88;;;1.40;100.00
4012;BME280;2020;48.682;9.024;2022-12-07T01:51:23;96455.53;;;1.41;100.00
4012;BME280;2020;48.682;9.024;2022-12-07T01:53:48;96455.91;;;1.35;100.00
4012;BME280;2020;48.682;9.024;2022-12-07T01:56:17;96454.28;;;1.34;100.00
4012;BME280;2020;48.682;9.024;2022-12-07T01:58:45;96459.19;;;1.37;100.00
4012;BME280;2020;48.682;9.024;2022-12-07T02:01:11;96451.63;;;1.36;100.00
4012;BME280;2020;48.682;9.024;2022-12-07T02:03:41;96454.47;;;1.31;100.00
4012;BME280;2020;48.682;9.024;2022-12-07T02:06:09;96461.44;;;1.29;100.00
4012;BME280;2020;48.682;9.024;2022-12-07T02:08:35;96454.47;;;1.31;100.00
4012;BME280;2020;48.682;9.024;2022-12-07T02:11:02;96460.59;;;1.28;100.00
4012;BME280;2020;48.682;9.024;2022-12-07T02:13:31;96459.59;;;1.31;100.00
4012;BME280;2020;48.682;9.024;2022-12-07T02:24:16;96460.41;;;1.31;99.17
4012;BME280;2020;48.682;9.024;2022-12-07T02:29:24;96454.47;;;1.31;100.00
4012;BME280;2020;48.682;9.024;2022-12-07T02:31:57;96449.34;;;1.31;99.88
4012;BME280;2020;48.682;9.024;2022-12-07T02:34:33;96452.81;;;1.30;99.16
4012;BME280;2020;48.682;9.024;2022-12-07T02:37:10;96450.06;;;1.33;100.00
4012;BME280;2020;48.682;9.024;2022-12-07T02:39:49;96444.22;;;1.31;100.00
4012;BME280;2020;48.682;9.024;2022-12-07T02:42:20;96443.38;;;1.30;100.00
4012;BME280;2020;48.682;9.024;2022-12-07T02:44:48;96450.97;;;1.32;100.00
4012;BME280;2020;48.682;9.024;2022-12-07T02:47:16;96456.09;;;1.32;99.69
4012;BME280;2020;48.682;9.024;2022-12-07T02:49:43;96456.31;;;1.29;99.19
4012;BME280;2020;48.682;9.024;2022-12-07T02:52:08;96453.03;;;1.27;99.18
4012;BME280;2020;48.682;9.024;2022-12-07T02:54:34;96437.84;;;1.24;99.13
4012;BME280;2020;48.682;9.024;2022-12-07T03:04:48;96436.19;;;1.23;99.90
4012;BME280;2020;48.682;9.024;2022-12-07T03:13:11;96427.38;;;1.27;100.00
4012;BME280;2020;48.682;9.024;2022-12-07T03:15:40;96429.81;;;1.28;100.00
4012;BME280;2020;48.682;9.024;2022-12-07T03:18:09;96424.81;;;1.27;100.00
4012;BME280;2020;48.682;9.024;2022-12-07T03:20:37;96420.59;;;1.26;100.00
4012;BME280;2020;48.682;9.024;2022-12-07T03:23:05;96424.69;;;1.28;100.00
4012;BME280;2020;48.682;9.024;2022-12-07T03:25:36;96420.59;;;1.26;100.00
4012;BME280;2020;48.682;9.024;2022-12-07T03:28:05;96424.47;;;1.19;99.38
4012;BME280;2020;48.682;9.024;2022-12-07T03:30:42;96421.00;;;1.20;99.57
4012;BME280;2020;48.682;9.024;2022-12-07T03:33:17;96424.28;;;1.22;99.87
4012;BME280;2020;48.682;9.024;2022-12-07T03:35:52;96424.28;;;1.22;100.00
4012;BME280;2020;48.682;9.024;2022-12-07T03:38:27;96415.66;;;1.23;100.00
4012;BME280;2020;48.682;9.024;2022-12-07T03:41:29;96424.28;;;1.22;100.00
4012;BME280;2020;48.682;9.024;2022-12-07T03:43:54;96427.56;;;1.24;100.00
4012;BME280;2020;48.682;9.024;2022-12-07T03:57:52;96426.22;;;1.18;100.00
4012;BME280;2020;48.682;9.024;2022-12-07T04:00:19;96427.03;;;1.19;100.00
4012;BME280;2020;48.682;9.024;2022-12-07T04:02:45;96417.00;;;1.15;100.00
4012;BME280;2020;48.682;9.024;2022-12-07T04:05:10;96415.88;;;1.20;100.00
4012;BME280;2020;48.682;9.024;2022-12-07T04:07:36;96419.34;;;1.19;100.00
4012;BME280;2020;48.682;9.024;2022-12-07T04:10:02;96414.22;;;1.19;100.00
4012;BME280;2020;48.682;9.024;2022-12-07T04:12:28;96410.00;;;1.17;100.00
4012;BME280;2020;48.682;9.024;2022-12-07T04:14:53;96412.59;;;1.17;100.00
4012;BME280;2020;48.682;9.024;2022-12-07T04:17:18;96411.84;;;1.15;100.00
4012;BME280;2020;48.682;9.024;2022-12-07T04:19:43;96411.75;;;1.17;100.00
4012;BME280;2020;48.682;9.024;2022-12-07T04:22:10;96409.81;;;1.21;100.00
4012;BME280;2020;48.682;9.024;2022-12-07T04:24:35;96405.63;;;1.20;100.00
4012;BME280;2020;48.682;9.024;2022-12-07T04:27:01;96407.25;;;1.21;100.00
4012;BME280;2020;48.682;9.024;2022-12-07T04:29:26;96403.78;;;1.22;100.00
4012;BME280;2020;48.682;9.024;2022-12-07T04:31:51;96408.25;;;1.18;100.00
4012;BME280;2020;48.682;9.024;2022-12-07T04:34:17;96407.44;;;1.17;100.00
4012;BME280;2020;48.682;9.024;2022-12-07T04:36:44;96414.22;;;1.19;100.00
4012;BME280;2020;48.682;9.024;2022-12-07T04:39:18;96415.16;;;1.17;100.00
4012;BME280;2020;48.682;9.024;2022-12-07T04:41:44;96415.16;;;1.17;100.00
4012;BME280;2020;48.682;9.024;2022-12-07T04:44:09;96409.09;;;1.19;100.00
4012;BME280;2020;48.682;9.024;2022-12-07T04:46:36;96407.44;;;1.17;100.00
4012;BME280;2020;48.682;9.024;2022-12-07T04:49:01;96400.47;;;1.20;100.00
4012;BME280;2020;48.682;9.024;2022-12-07T04:51:28;96399.22;;;1.12;100.00
4012;BME280;2020;48.682;9.024;2022-12-07T04:53:54;96407.84;;;1.11;100.00
4012;BME280;2020;48.682;9.024;2022-12-07T04:56:21;96407.66;;;1.14;99.91
4012;BME280;2020;48.682;9.024;2022-12-07T04:58:47;96401.69;;;1.14;99.54
4012;BME280;2020;48.682;9.024;2022-12-07T05:01:13;96398.41;;;1.12;99.05
4012;BME280;2020;48.682;9.024;2022-12-07T05:03:39;96391.59;;;0.98;98.94
4012;BME280;2020;48.682;9.024;2022-12-07T05:06:05;96392.53;;;0.97;98.46
4012;BME280;2020;48.682;9.024;2022-12-07T05:08:33;96388.50;;;0.93;98.27
4012;BME280;2020;48.682;9.024;2022-12-07T05:10:58;96390.16;;;0.94;97.02
4012;BME280;2020;48.682;9.024;2022-12-07T05:13:23;96382.91;;;0.73;98.10
4012;BME280;2020;48.682;9.024;2022-12-07T05:15:49;96385.13;;;0.50;98.33
4012;BME280;2020;48.682;9.024;2022-12-07T05:18:14;96379.50;;;0.31;99.95
4012;BME280;2020;48.682;9.024;2022-12-07T05:20:40;96377.47;;;0.36;100.00
4012;BME280;2020;48.682;9.024;2022-12-07T05:23:06;96381.50;;;0.40;100.00
4012;BME280;2020;48.682;9.024;2022-12-07T05:25:31;96379.03;;;0.38;100.00
4012;BME280;2020;48.682;9.024;2022-12-07T05:27:57;96376.38;;;0.40;99.18
4012;BME280;2020;48.682;9.024;2022-12-07T05:30:23;96369.41;;;0.42;99.11
4012;BME280;2020;48.682;9.024;2022-12-07T05:32:49;96362.28;;;0.47;99.23
4012;BME280;2020;48.682;9.024;2022-12-07T05:35:15;96361.47;;;0.47;98.88
4012;BME280;2020;48.682;9.024;2022-12-07T05:37:40;96362.47;;;0.44;99.41
4012;BME280;2020;48.682;9.024;2022-12-07T05:40:06;96373.25;;;0.49;99.02
4012;BME280;2020;48.682;9.024;2022-12-07T05:42:32;96377.44;;;0.50;98.45
4012;BME280;2020;48.682;9.024;2022-12-07T05:44:57;96378.66;;;0.45;98.06
4012;BME280;2020;48.682;9.024;2022-12-07T05:47:22;96380.22;;;0.47;97.09
4012;BME280;2020;48.682;9.024;2022-12-07T05:49:48;96376.19;;;0.43;97.87
4012;BME280;2020;48.682;9.024;2022-12-07T05:52:13;96382.53;;;0.37;97.38
4012;BME280;2020;48.682;9.024;2022-12-07T05:54:38;96380.22;;;0.33;97.69
4012;BME280;2020;48.682;9.024;2022-12-07T05:57:04;96380.41;;;0.29;97.20
4012;BME280;2020;48.682;9.024;2022-12-07T05:59:29;96390.84;;;0.26;96.43
4012;BME280;2020;48.682;9.024;2022-12-07T06:02:00;96390.50;;;0.18;96.66
4012;BME280;2020;48.682;9.024;2022-12-07T06:04:28;96391.59;;;0.14;96.89
4012;BME280;2020;48.682;9.024;2022-12-07T06:06:55;96391.59;;;0.14;95.86
4012;BME280;2020;48.682;9.024;2022-12-07T06:09:21;96400.38;;;0.10;96.12
4012;BME280;2020;48.682;9.024;2022-12-07T06:11:47;96408.78;;;0.12;96.65
4012;BME280;2020;48.682;9.024;2022-12-07T06:14:31;96402.00;;;0.11;97.08
4012;BME280;2020;48.682;9.024;2022-12-07T06:16:56;96398.53;;;0.12;97.69
4012;BME280;2020;48.682;9.024;2022-12-07T06:19:22;96406.94;;;0.14;98.10
4012;BME280;2020;48.682;9.024;2022-12-07T06:21:47;96406.59;;;0.20;98.56
4012;BME280;2020;48.682;9.024;2022-12-07T06:24:13;96399.00;;;0.19;98.96
4012;BME280;2020;48.682;9.024;2022-12-07T06:26:39;96411.16;;;0.15;99.56
4012;BME280;2020;48.682;9.024;2022-12-07T06:29:05;96410.25;;;0.16;99.07
4012;BME280;2020;48.682;9.024;2022-12-07T06:31:30;96407.50;;;0.19;99.97
4012;BME280;2020;48.682;9.024;2022-12-07T06:33:59;96408.22;;;0.21;99.97
4012;BME280;2020;48.682;9.024;2022-12-07T06:36:25;96411.69;;;0.20;100.00
4012;BME280;2020;48.682;9.024;2022-12-07T06:38:51;96411.09;;;0.17;100.00
4012;BME280;2020;48.682;9.024;2022-12-07T06:41:16;96420.09;;;0.22;100.00
4012;BME280;2020;48.682;9.024;2022-12-07T06:43:41;96425.03;;;0.25;100.00
4012;BME280;2020;48.682;9.024;2022-12-07T06:46:07;96418.28;;;0.24;100.00
4012;BME280;2020;48.682;9.024;2022-12-07T06:48:32;96423.41;;;0.24;99.39
4012;BME280;2020;48.682;9.024;2022-12-07T06:50:58;96411.34;;;0.26;99.89
4012;BME280;2020;48.682;9.024;2022-12-07T06:53:23;96413.34;;;0.21;99.86
4012;BME280;2020;48.682;9.024;2022-12-07T06:55:48;96422.78;;;0.21;99.87
4012;BME280;2020;48.682;9.024;2022-12-07T06:58:14;96428.72;;;0.21;100.00
4012;BME280;2020;48.682;9.024;2022-12-07T07:00:39;96427.59;;;0.25;100.00
4012;BME280;2020;48.682;9.024;2022-12-07T07:03:04;96442.78;;;0.14;100.00
4012;BME280;2020;48.682;9.024;2022-12-07T07:05:30;96423.59;;;0.21;99.63
4012;BME280;2020;48.682;9.024;2022-12-07T07:07:55;96427.06;;;0.20;100.00
4012;BME280;2020;48.682;9.024;2022-12-07T07:10:20;96415.81;;;0.23;100.00
4012;BME280;2020;48.682;9.024;2022-12-07T07:12:45;96420.84;;;0.10;100.00
4012;BME280;2020;48.682;9.024;2022-12-07T07:15:11;96420.13;;;0.08;100.00
4012;BME280;2020;48.682;9.024;2022-12-07T07:17:37;96418.22;;;0.11;100.00
4012;BME280;2020;48.682;9.024;2022-12-07T07:20:02;96419.56;;;0.03;100.00
4012;BME280;2020;48.682;9.024;2022-12-07T07:22:28;96421.03;;;0.07;100.00
4012;BME280;2020;48.682;9.024;2022-12-07T07:24:53;96414.63;;;0.14;100.00
4012;BME280;2020;48.682;9.024;2022-12-07T07:27:18;96416.81;;;0.20;100.00
4012;BME280;2020;48.682;9.024;2022-12-07T07:29:44;96411.69;;;0.20;100.00
4012;BME280;2020;48.682;9.024;2022-12-07T07:32:09;96421.75;;;0.23;99.84
4012;BME280;2020;48.682;9.024;2022-12-07T07:34:34;96413.34;;;0.21;98.95
4012;BME280;2020;48.682;9.024;2022-12-07T07:37:00;96414.06;;;0.23;98.44
4012;BME280;2020;48.682;9.024;2022-12-07T07:39:25;96412.97;;;0.27;98.59
4012;BME280;2020;48.682;9.024;2022-12-07T07:41:50;96420.47;;;0.31;97.05
4012;BME280;2020;48.682;9.024;2022-12-07T07:44:16;96416.63;;;0.23;96.36
4012;BME280;2020;48.682;9.024;2022-12-07T07:46:41;96420.84;;;0.24;96.64
4012;BME280;2020;48.682;9.024;2022-12-07T07:49:06;96431.63;;;0.29;97.26
4012;BME280;2020;48.682;9.024;2022-12-07T07:51:31;96434.53;;;0.38;95.52
4012;BME280;2020;48.682;9.024;2022-12-07T07:53:57;96442.97;;;0.40;95.25
4012;BME280;2020;48.682;9.024;2022-12-07T07:56:22;96448.06;;;0.40;95.27
4012;BME280;2020;48.682;9.024;2022-12-07T07:58:51;96447.09;;;0.42;95.51
4012;BME280;2020;48.682;9.024;2022-12-07T08:01:17;96446.06;;;0.45;94.25
4012;BME280;2020;48.682;9.024;2022-12-07T08:03:44;96443.50;;;0.45;94.00
4012;BME280;2020;48.682;9.024;2022-12-07T08:06:09;96450.19;;;0.48;94.12
4012;BME280;2020;48.682;9.024;2022-12-07T08:08:35;96441.59;;;0.49;95.62
4012;BME280;2020;48.682;9.024;2022-12-07T08:11:00;96449.91;;;0.52;93.54
4012;BME280;2020;48.682;9.024;2022-12-07T08:13:26;96445.31;;;0.57;93.33
4012;BME280;2020;48.682;9.024;2022-12-07T08:15:51;96441.84;;;0.58;92.56
4012;BME280;2020;48.682;9.024;2022-12-07T08:18:17;96440.53;;;0.66;92.96
4012;BME280;2020;48.682;9.024;2022-12-07T08:20:42;96450.63;;;0.69;93.50
4012;BME280;2020;48.682;9.024;2022-12-07T08:23:08;96445.31;;;0.57;90.96
4012;BME280;2020;48.682;9.024;2022-12-07T08:25:34;96446.16;;;0.58;90.87
4012;BME280;2020;48.682;9.024;2022-12-07T08:28:00;96450.25;;;0.61;90.05
4012;BME280;2020;48.682;9.024;2022-12-07T08:30:25;96448.59;;;0.60;90.48
4012;BME280;2020;48.682;9.024;2022-12-07T08:32:51;96447.16;;;0.55;90.83
4012;BME280;2020;48.682;9.024;2022-12-07T08:35:16;96455.38;;;0.61;91.07
4012;BME280;2020;48.682;9.024;2022-12-07T08:37:42;96454.00;;;0.69;91.52
4012;BME280;2020;48.682;9.024;2022-12-07T08:40:08;96450.91;;;0.64;88.93
4012;BME280;2020;48.682;9.024;2022-12-07T08:42:34;96455.03;;;0.67;89.21
4012;BME280;2020;48.682;9.024;2022-12-07T08:45:07;96451.91;;;0.62;88.85
4012;BME280;2020;48.682;9.024;2022-12-07T08:47:34;96456.94;;;0.63;90.05
4012;BME280;2020;48.682;9.024;2022-12-07T08:50:02;96455.47;;;0.73;89.46
4012;BME280;2020;48.682;9.024;2022-12-07T08:52:30;96455.06;;;0.80;88.93
4012;BME280;2020;48.682;9.024;2022-12-07T08:54:55;96455.72;;;0.83;90.03
4012;BME280;2020;48.682;9.024;2022-12-07T08:57:21;96460.19;;;0.80;88.53
4012;BME280;2020;48.682;9.024;2022-12-07T08:59:46;96451.84;;;0.91;88.28
4012;BME280;2020;48.682;9.024;2022-12-07T09:02:12;96449.38;;;0.89;88.39
4012;BME280;2020;48.682;9.024;2022-12-07T09:04:37;96447.66;;;0.90;87.52
4012;BME280;2020;48.682;9.024;2022-12-07T09:07:02;96458.06;;;1.01;88.35
4012;BME280;2020;48.682;9.024;2022-12-07T09:09:29;96459.31;;;1.08;88.85
4012;BME280;2020;48.682;9.024;2022-12-07T09:11:54;96457.66;;;1.07;86.44
4012;BME280;2020;48.682;9.024;2022-12-07T09:14:19;96455.84;;;1.09;86.12
4012;BME280;2020;48.682;9.024;2022-12-07T09:16:45;96461.97;;;1.07;85.14
4012;BME280;2020;48.682;9.024;2022-12-07T09:19:10;96459.13;;;1.11;86.50
4012;BME280;2020;48.682;9.024;2022-12-07T09:21:35;96463.13;;;1.15;85.22
4012;BME280;2020;48.682;9.024;2022-12-07T09:24:00;96463.66;;;1.21;85.64
4012;BME280;2020;48.682;9.024;2022-12-07T09:26:26;96457.63;;;1.22;84.70
4012;BME280;2020;48.682;9.024;2022-12-07T09:28:51;96460.69;;;0.99;83.43
4012;BME280;2020;48.682;9.024;2022-12-07T09:31:16;96457.78;;;0.91;85.55
4012;BME280;2020;48.682;9.024;2022-12-07T09:33:42;96459.91;;;0.99;85.00
4012;BME280;2020;48.682;9.024;2022-12-07T09:36:07;96460.22;;;1.07;84.17
4012;BME280;2020;48.682;9.024;2022-12-07T09:38:33;96450.31;;;1.15;85.08
4012;BME280;2020;48.682;9.024;2022-12-07T09:41:05;96446.19;;;1.13;84.72
4012;BME280;2020;48.682;9.024;2022-12-07T09:43:30;96450.19;;;1.04;85.55
4012;BME280;2020;48.682;9.024;2022-12-07T09:45:56;96445.56;;;1.09;84.77
4012;BME280;2020;48.682;9.024;2022-12-07T09:48:42;96452.69;;;1.19;85.28
4012;BME280;2020;48.682;9.024;2022-12-07T09:51:26;96441.66;;;1.31;84.70
4012;BME280;2020;48.682;9.024;2022-12-07T09:53:53;96446.91;;;1.42;84.91
4012;BME280;2020;48.682;9.024;2022-12-07T09:56:21;96437.56;;;1.41;84.10
4012;BME280;2020;48.682;9.024;2022-12-07T09:58:47;96430.41;;;1.46;82.32
4012;BME280;2020;48.682;9.024;2022-12-07T10:01:14;96429.28;;;1.51;83.13
4012;BME280;2020;48.682;9.024;2022-12-07T10:03:45;96432.56;;;1.53;83.62
4012;BME280;2020;48.682;9.024;2022-12-07T10:06:13;96433.81;;;1.60;83.97
4012;BME280;2020;48.682;9.024;2022-12-07T10:08:39;96425.97;;;1.49;83.71
4012;BME280;2020;48.682;9.024;2022-12-07T10:11:06;96431.56;;;1.68;85.37
4012;BME280;2020;48.682;9.024;2022-12-07T10:13:40;96434.22;;;1.67;83.39
4012;BME280;2020;48.682;9.024;2022-12-07T10:16:35;96428.91;;;1.83;84.22
4012;BME280;2020;48.682;9.024;2022-12-07T10:22:11;96420.47;;;1.81;82.25
4012;BME280;2020;48.682;9.024;2022-12-07T10:24:39;96419.25;;;1.73;84.00
4012;BME280;2020;48.682;9.024;2022-12-07T10:27:18;96408.47;;;1.94;85.43
4012;BME280;2020;48.682;9.024;2022-12-07T10:29:48;96403.31;;;1.94;82.23
4012;BME280;2020;48.682;9.024;2022-12-07T10:34:40;96409.00;;;1.86;81.55
4012;BME280;2020;48.682;9.024;2022-12-07T10:37:17;96414.22;;;1.85;83.37
4012;BME280;2020;48.682;9.024;2022-12-07T10:39:54;96410.22;;;1.68;82.21
4012;BME280;2020;48.682;9.024;2022-12-07T10:42:23;96412.88;;;1.66;83.81
4012;BME280;2020;48.682;9.024;2022-12-07T10:45:06;96410.41;;;1.78;84.45
4012;BME280;2020;48.682;9.024;2022-12-07T10:53:07;96398.91;;;1.96;84.72
4012;BME280;2020;48.682;9.024;2022-12-07T10:58:43;96391.34;;;2.08;83.57
4012;BME280;2020;48.682;9.024;2022-12-07T11:01:33;96388.44;;;2.12;84.34
4012;BME280;2020;48.682;9.024;2022-12-07T11:04:13;96382.28;;;2.15;82.31
4012;BME280;2020;48.682;9.024;2022-12-07T11:07:14;96378.78;;;2.16;83.66
4012;BME280;2020;48.682;9.024;2022-12-07T11:09:47;96378.78;;;2.16;82.83
4012;BME280;2020;48.682;9.024;2022-12-07T11:18:13;96360.28;;;2.24;82.87
4012;BME280;2020;48.682;9.024;2022-12-07T11:21:15;96375.09;;;2.20;82.60
4012;BME280;2020;48.682;9.024;2022-12-07T11:24:01;96358.84;;;2.19;82.23
4012;BME280;2020;48.682;9.024;2022-12-07T11:27:05;96363.75;;;2.23;83.60
4012;BME280;2020;48.682;9.024;2022-12-07T11:32:19;96354.13;;;2.26;83.78
4012;BME280;2020;48.682;9.024;2022-12-07T11:37:21;96352.69;;;2.22;83.21
4012;BME280;2020;48.682;9.024;2022-12-07T11:39:51;96344.78;;;2.25;82.69
4012;BME280;2020;48.682;9.024;2022-12-07T11:42:22;96344.78;;;2.25;82.96
4012;BME280;2020;48.682;9.024;2022-12-07T11:44:53;96345.28;;;2.30;83.03
4012;BME280;2020;48.682;9.024;2022-12-07T11:47:41;96338.91;;;2.23;82.96
4012;BME280;2020;48.682;9.024;2022-12-07T11:55:43;96328.94;;;2.31;81.94
4012;BME280;2020;48.682;9.024;2022-12-07T12:03:53;96328.66;;;2.23;84.25
4012;BME280;2020;48.682;9.024;2022-12-07T12:06:19;96323.50;;;2.23;82.77
4012;BME280;2020;48.682;9.024;2022-12-07T12:08:50;96318.88;;;2.28;84.41
4012;BME280;2020;48.682;9.024;2022-12-07T12:14:33;96322.25;;;2.29;85.92
4012;BME280;2020;48.682;9.024;2022-12-07T12:22:37;96314.22;;;2.33;83.50
4012;BME280;2020;48.682;9.024;2022-12-07T12:25:06;96315.88;;;2.34;85.40
4012;BME280;2020;48.682;9.024;2022-12-07T12:27:37;96306.41;;;2.35;85.24
4012;BME280;2020;48.682;9.024;2022-12-07T12:30:07;96309.09;;;2.33;84.39
4012;BME280;2020;48.682;9.024;2022-12-07T12:32:49;96308.91;;;2.24;85.06
4012;BME280;2020;48.682;9.024;2022-12-07T12:37:46;96302.31;;;2.32;86.73
4012;BME280;2020;48.682;9.024;2022-12-07T12:42:45;96299.03;;;2.30;86.63
4012;BME280;2020;48.682;9.024;2022-12-07T12:45:28;96305.38;;;2.38;89.18
4012;BME280;2020;48.682;9.024;2022-12-07T12:48:01;96301.88;;;2.39;88.92
4012;BME280;2020;48.682;9.024;2022-12-07T12:50:35;96293.97;;;2.42;88.36
4012;BME280;2020;48.682;9.024;2022-12-07T13:01:25;96298.72;;;2.59;88.45
4012;BME280;2020;48.682;9.024;2022-12-07T13:03:34;96300.34;;;2.60;88.16
4012;BME280;2020;48.682;9.024;2022-12-07T13:08:44;96285.59;;;2.51;85.81
4012;BME280;2020;48.682;9.024;2022-12-07T13:11:27;96280.25;;;2.54;86.99
4012;BME280;2020;48.682;9.024;2022-12-07T13:16:58;96274.03;;;2.57;88.25
4012;BME280;2020;48.682;9.024;2022-12-07T13:25:09;96268.59;;;2.61;86.91
4012;BME280;2020;48.682;9.024;2022-12-07T13:27:39;96271.38;;;2.58;87.02
4012;BME280;2020;48.682;9.024;2022-12-07T13:30:17;96264.38;;;2.60;86.97
4012;BME280;2020;48.682;9.024;2022-12-07T13:32:43;96267.44;;;2.66;85.54
4012;BME280;2020;48.682;9.024;2022-12-07T13:35:31;96264.16;;;2.63;86.45
4012;BME280;2020;48.682;9.024;2022-12-07T13:37:57;96267.44;;;2.66;85.86
4012;BME280;2020;48.682;9.024;2022-12-07T13:40:23;96262.50;;;2.62;85.49
4012;BME280;2020;48.682;9.024;2022-12-07T13:42:57;96264.59;;;2.57;86.41
4012;BME280;2020;48.682;9.024;2022-12-07T13:45:31;96261.09;;;2.58;86.76
4012;BME280;2020;48.682;9.024;2022-12-07T13:48:26;96270.22;;;2.62;87.72
4012;BME280;2020;48.682;9.024;2022-12-07T13:50:54;96267.66;;;2.62;87.27
4012;BME280;2020;48.682;9.024;2022-12-07T13:53:20;96255.97;;;2.58;87.19
4012;BME280;2020;48.682;9.024;2022-12-07T13:55:46;96253.38;;;2.58;84.87
4012;BME280;2020;48.682;9.024;2022-12-07T13:58:12;96264.09;;;2.52;84.97
4012;BME280;2020;48.682;9.024;2022-12-07T14:00:39;96256.41;;;2.52;85.22
4012;BME280;2020;48.682;9.024;2022-12-07T14:05:38;96258.97;;;2.52;86.06
4012;BME280;2020;48.682;9.024;2022-12-07T14:08:05;96261.09;;;2.58;85.38
4012;BME280;2020;48.682;9.024;2022-12-07T14:10:32;96263.19;;;2.53;84.53
4012;BME280;2020;48.682;9.024;2022-12-07T14:12:59;96263.19;;;2.53;84.64
4012;BME280;2020;48.682;9.024;2022-12-07T14:15:29;96259.91;;;2.51;85.38
4012;BME280;2020;48.682;9.024;2022-12-07T14:17:55;96258.97;;;2.52;85.11
4012;BME280;2020;48.682;9.024;2022-12-07T14:20:36;96260.94;;;2.48;86.07
4012;BME280;2020;48.682;9.024;2022-12-07T14:23:02;96254.53;;;2.54;86.66
4012;BME280;2020;48.682;9.024;2022-12-07T14:25:44;96260.13;;;2.48;85.61
4012;BME280;2020;48.682;9.024;2022-12-07T14:28:32;96256.63;;;2.49;84.83
4012;BME280;2020;48.682;9.024;2022-12-07T14:30:58;96248.44;;;2.44;83.05
4012;BME280;2020;48.682;9.024;2022-12-07T14:33:24;96254.00;;;2.38;85.07
4012;BME280;2020;48.682;9.024;2022-12-07T14:35:50;96255.75;;;2.37;84.38
4012;BME280;2020;48.682;9.024;2022-12-07T14:38:20;96255.25;;;2.32;83.79
4012;BME280;2020;48.682;9.024;2022-12-07T14:40:45;96261.31;;;2.31;84.51
4012;BME280;2020;48.682;9.024;2022-12-07T14:43:15;96259.59;;;2.31;85.20
4012;BME280;2020;48.682;9.024;2022-12-07T14:45:41;96263.28;;;2.27;85.41
4012;BME280;2020;48.682;9.024;2022-12-07T14:48:14;96264.94;;;2.28;85.67
4012;BME280;2020;48.682;9.024;2022-12-07T14:50:51;96265.97;;;2.26;85.57
4012;BME280;2020;48.682;9.024;2022-12-07T14:53:23;96261.66;;;2.26;83.57
4012;BME280;2020;48.682;9.024;2022-12-07T14:55:52;96261.16;;;2.21;84.12
4012;BME280;2020;48.682;9.024;2022-12-07T14:58:18;96249.13;;;2.22;85.32
4012;BME280;2020;48.682;9.024;2022-12-07T15:00:43;96256.72;;;2.23;85.73
4012;BME280;2020;48.682;9.024;2022-12-07T15:03:09;96258.59;;;2.21;83.75
4012;BME280;2020;48.682;9.024;2022-12-07T15:05:34;96259.31;;;2.23;85.28
4012;BME280;2020;48.682;9.024;2022-12-07T15:08:00;96263.72;;;2.21;84.87
4012;BME280;2020;48.682;9.024;2022-12-07T15:10:29;96262.59;;;2.25;85.84
4012;BME280;2020;48.682;9.024;2022-12-07T15:12:57;96254.88;;;2.25;84.38
4012;BME280;2020;48.682;9.024;2022-12-07T15:15:42;96265.25;;;2.24;85.24
4012;BME280;2020;48.682;9.024;2022-12-07T15:18:08;96268.66;;;2.24;84.83
4012;BME280;2020;48.682;9.024;2022-12-07T15:20:33;96260.44;;;2.19;86.17
4012;BME280;2020;48.682;9.024;2022-12-07T15:22:58;96265.38;;;2.22;86.42
4012;BME280;2020;48.682;9.024;2022-12-07T15:25:24;96256.72;;;2.23;85.50
4012;BME280;2020;48.682;9.024;2022-12-07T15:27:49;96260.44;;;2.19;85.88